createdAt,value
2023-05-11T00:00:10.235Z,60.17
2023-05-11T00:01:12.756Z,60.44
2023-05-11T00:02:15.479Z,60.29
2023-05-11T00:03:18.126Z,60.30
2023-05-11T00:04:20.580Z,60.16
2023-05-11T00:05:22.982Z,60.53
2023-05-11T00:06:25.290Z,60.43
2023-05-11T00:07:27.624Z,60.22
2023-05-11T00:08:30.061Z,60.39
2023-05-11T00:09:32.326Z,60.16
2023-05-11T00:10:34.544Z,60.32
2023-05-11T00:11:36.983Z,60.41
2023-05-11T00:12:39.270Z,60.41
2023-05-11T00:13:41.897Z,60.51
2023-05-11T00:14:44.180Z,60.59
2023-05-11T00:15:46.540Z,60.51
2023-05-11T00:16:48.883Z,60.63
2023-05-11T00:17:51.265Z,60.51
2023-05-11T00:18:53.659Z,60.51
2023-05-11T00:19:57.564Z,60.37
2023-05-11T00:20:59.821Z,60.62
2023-05-11T00:22:02.095Z,60.27
2023-05-11T00:23:04.557Z,60.26
2023-05-11T00:24:07.521Z,60.20
2023-05-11T00:25:10.042Z,60.25
2023-05-11T00:26:12.344Z,60.31
2023-05-11T00:27:15.307Z,60.16
2023-05-11T00:28:17.616Z,60.38
2023-05-11T00:29:20.179Z,60.30
2023-05-11T00:30:22.491Z,60.42
2023-05-11T00:31:30.169Z,60.44
2023-05-11T00:32:32.817Z,60.52
2023-05-11T00:33:35.399Z,60.64
2023-05-11T00:34:38.737Z,60.59
2023-05-11T00:35:41.152Z,60.67
2023-05-11T00:36:44.359Z,60.67
2023-05-11T00:37:46.682Z,60.58
2023-05-11T00:38:50.277Z,60.69
2023-05-11T00:39:52.621Z,60.74
2023-05-11T00:40:55.617Z,60.72
2023-05-11T00:41:58.243Z,60.51
2023-05-11T00:43:01.851Z,60.79
2023-05-11T00:44:04.623Z,60.70
2023-05-11T00:45:07.690Z,60.88
2023-05-11T00:46:10.947Z,60.76
2023-05-11T00:47:13.476Z,60.69
2023-05-11T00:48:17.191Z,60.91
2023-05-11T00:49:21.691Z,60.58
2023-05-11T00:50:25.155Z,60.86
2023-05-11T00:51:28.629Z,60.84
2023-05-11T00:52:30.929Z,60.78
2023-05-11T00:53:33.790Z,60.83
2023-05-11T00:54:37.897Z,60.90
2023-05-11T00:55:40.621Z,61.02
2023-05-11T00:56:43.225Z,61.12
2023-05-11T00:57:45.815Z,60.83
2023-05-11T00:58:48.866Z,60.90
2023-05-11T00:59:51.299Z,61.07
2023-05-11T01:00:53.789Z,61.17
2023-05-11T01:01:56.723Z,60.96
2023-05-11T01:03:01.674Z,61.00
2023-05-11T01:04:04.198Z,61.26
2023-05-11T01:05:07.384Z,61.10
2023-05-11T01:06:44.805Z,60.86
2023-05-11T01:07:58.403Z,60.98
2023-05-11T01:09:09.679Z,61.34
2023-05-11T01:10:44.968Z,61.27
2023-05-11T01:12:27.892Z,61.03
2023-05-11T01:13:35.304Z,61.47
2023-05-11T01:15:01.123Z,61.19
2023-05-11T01:16:14.333Z,61.63
2023-05-11T01:17:30.452Z,61.96
2023-05-11T01:18:51.448Z,62.08
2023-05-11T01:20:04.498Z,62.29
2023-05-11T01:21:08.987Z,62.19
2023-05-11T01:22:34.208Z,62.37
2023-05-11T01:23:48.758Z,62.47
2023-05-11T01:25:33.763Z,62.35
2023-05-11T01:26:59.025Z,62.72
2023-05-11T01:28:26.187Z,62.51
2023-05-11T01:29:49.835Z,62.66
2023-05-11T01:31:02.711Z,62.78
2023-05-11T01:32:15.746Z,62.85
2023-05-11T01:33:25.257Z,63.01
2023-05-11T01:34:32.165Z,62.87
2023-05-11T01:35:43.086Z,62.90
2023-05-11T01:37:10.183Z,62.92
2023-05-11T01:38:19.482Z,63.03
2023-05-11T01:39:27.960Z,62.99
2023-05-11T01:40:34.415Z,63.16
2023-05-11T01:41:40.482Z,62.87
2023-05-11T01:42:47.953Z,62.85
2023-05-11T01:43:56.075Z,63.15
2023-05-11T01:45:01.550Z,62.97
2023-05-11T01:46:05.495Z,63.05
2023-05-11T01:47:11.822Z,62.96
2023-05-11T01:48:21.758Z,63.04
2023-05-11T01:49:24.654Z,62.89
2023-05-11T01:50:27.039Z,63.15
2023-05-11T01:51:34.858Z,63.31
2023-05-11T01:52:40.087Z,63.35
2023-05-11T01:53:44.675Z,63.20
2023-05-11T01:54:50.068Z,63.25
2023-05-11T01:55:54.698Z,63.41
2023-05-11T01:56:58.265Z,63.29
2023-05-11T01:58:03.558Z,63.32
2023-05-11T01:59:06.911Z,63.23
2023-05-11T02:00:09.962Z,63.35
2023-05-11T02:01:18.272Z,63.55
2023-05-11T02:02:21.960Z,63.62
2023-05-11T02:03:27.721Z,63.52
2023-05-11T02:04:31.898Z,63.49
2023-05-11T02:05:36.606Z,63.68
2023-05-11T02:06:40.521Z,63.55
2023-05-11T02:07:43.742Z,63.75
2023-05-11T02:08:47.552Z,63.63
2023-05-11T02:09:53.209Z,63.70
2023-05-11T02:10:59.483Z,63.77
2023-05-11T02:12:06.950Z,63.79
2023-05-11T02:13:11.176Z,63.76
2023-05-11T02:14:15.860Z,63.83
2023-05-11T02:15:19.693Z,63.73
2023-05-11T02:16:24.173Z,63.85
2023-05-11T02:17:27.421Z,64.08
2023-05-11T02:18:31.562Z,63.94
2023-05-11T02:19:37.360Z,63.81
2023-05-11T02:20:44.305Z,63.94
2023-05-11T02:21:49.958Z,63.82
2023-05-11T02:22:54.778Z,63.97
2023-05-11T02:23:59.301Z,63.85
2023-05-11T02:25:01.813Z,63.64
2023-05-11T02:26:05.791Z,63.74
2023-05-11T02:27:08.409Z,63.85
2023-05-11T02:28:10.873Z,63.83
2023-05-11T02:29:13.174Z,63.64
2023-05-11T02:30:15.984Z,63.59
2023-05-11T02:31:28.107Z,63.85
2023-05-11T02:32:35.217Z,63.56
2023-05-11T02:33:43.167Z,63.88
2023-05-11T02:34:54.549Z,63.87
2023-05-11T02:35:59.367Z,63.62
2023-05-11T02:37:09.728Z,63.77
2023-05-11T02:38:14.721Z,63.50
2023-05-11T02:39:22.154Z,63.68
2023-05-11T02:40:34.487Z,63.49
2023-05-11T02:41:46.272Z,63.65
2023-05-11T02:42:55.189Z,63.52
2023-05-11T02:44:03.431Z,63.56
2023-05-11T02:45:09.221Z,63.37
2023-05-11T02:46:17.457Z,63.42
2023-05-11T02:47:23.289Z,63.49
2023-05-11T02:48:34.686Z,63.18
2023-05-11T02:49:38.741Z,63.38
2023-05-11T02:50:44.601Z,63.17
2023-05-11T02:51:49.492Z,63.13
2023-05-11T02:52:55.972Z,63.11
2023-05-11T02:53:59.870Z,63.06
2023-05-11T02:55:06.674Z,63.13
2023-05-11T02:56:09.464Z,62.92
2023-05-11T02:57:12.131Z,62.77
2023-05-11T02:58:15.290Z,62.75
2023-05-11T02:59:23.348Z,62.85
2023-05-11T03:00:25.907Z,62.96
2023-05-11T03:01:30.854Z,62.90
2023-05-11T03:02:33.562Z,62.81
2023-05-11T03:03:36.381Z,62.87
2023-05-11T03:04:40.011Z,62.66
2023-05-11T03:05:43.972Z,62.57
2023-05-11T03:06:46.541Z,62.37
2023-05-11T03:07:48.823Z,62.33
2023-05-11T03:08:52.818Z,62.27
2023-05-11T03:09:55.214Z,62.22
2023-05-11T03:10:58.553Z,62.29
2023-05-11T03:12:04.864Z,62.16
2023-05-11T03:13:10.254Z,62.28
2023-05-11T03:14:13.701Z,62.07
2023-05-11T03:15:18.100Z,61.90
2023-05-11T03:16:23.960Z,62.05
2023-05-11T03:17:27.885Z,61.86
2023-05-11T03:18:31.665Z,61.78
2023-05-11T03:19:34.135Z,61.70
2023-05-11T03:20:40.757Z,61.59
2023-05-11T03:21:43.356Z,61.66
2023-05-11T03:22:46.650Z,61.79
2023-05-11T03:23:50.032Z,61.57
2023-05-11T03:24:53.208Z,61.37
2023-05-11T03:25:56.560Z,61.44
2023-05-11T03:27:02.666Z,61.38
2023-05-11T03:28:07.448Z,61.17
2023-05-11T03:29:13.519Z,61.22
2023-05-11T03:30:17.823Z,61.28
2023-05-11T03:31:23.871Z,61.27
2023-05-11T03:32:27.714Z,60.93
2023-05-11T03:33:30.899Z,61.02
2023-05-11T03:34:34.294Z,60.94
2023-05-11T03:35:38.026Z,61.00
2023-05-11T03:36:41.233Z,61.02
2023-05-11T03:37:45.874Z,60.92
2023-05-11T03:38:50.617Z,60.92
2023-05-11T03:39:59.802Z,60.96
2023-05-11T03:41:03.954Z,60.61
2023-05-11T03:42:10.037Z,60.64
2023-05-11T03:43:16.710Z,60.65
2023-05-11T03:44:24.199Z,60.84
2023-05-11T03:45:30.243Z,60.65
2023-05-11T03:46:36.465Z,60.79
2023-05-11T03:47:41.400Z,60.65
2023-05-11T03:48:45.523Z,60.78
2023-05-11T03:49:53.343Z,60.50
2023-05-11T03:50:56.363Z,60.54
2023-05-11T03:51:59.563Z,60.51
2023-05-11T03:53:02.719Z,60.71
2023-05-11T03:54:07.178Z,60.31
2023-05-11T03:55:10.958Z,60.40
2023-05-11T03:56:13.354Z,60.42
2023-05-11T03:57:16.234Z,60.36
2023-05-11T03:58:18.527Z,60.31
2023-05-11T03:59:21.206Z,60.25
2023-05-11T04:00:23.652Z,60.15
2023-05-11T04:01:27.019Z,60.35
2023-05-11T04:02:29.415Z,60.09
2023-05-11T04:03:31.914Z,60.31
2023-05-11T04:04:36.280Z,60.15
2023-05-11T04:05:38.589Z,60.12
2023-05-11T04:06:43.938Z,60.15
2023-05-11T04:07:52.384Z,60.19
2023-05-11T04:08:55.962Z,59.98
2023-05-11T04:09:58.258Z,59.99
2023-05-11T04:11:00.614Z,59.75
2023-05-11T04:12:03.942Z,59.65
2023-05-11T04:13:06.378Z,59.74
2023-05-11T04:14:08.708Z,59.85
2023-05-11T04:15:11.469Z,59.80
2023-05-11T04:16:13.843Z,59.63
2023-05-11T04:17:17.528Z,59.80
2023-05-11T04:18:20.322Z,59.76
2023-05-11T04:19:22.633Z,59.69
2023-05-11T04:20:25.402Z,59.51
2023-05-11T04:21:27.994Z,59.63
2023-05-11T04:22:30.380Z,59.72
2023-05-11T04:23:32.606Z,59.76
2023-05-11T04:24:35.264Z,59.50
2023-05-11T04:25:37.757Z,59.47
2023-05-11T04:26:40.009Z,59.65
2023-05-11T04:27:42.241Z,59.39
2023-05-11T04:28:44.502Z,59.40
2023-05-11T04:29:46.793Z,59.54
2023-05-11T04:30:54.548Z,59.37
2023-05-11T04:31:57.464Z,59.54
2023-05-11T04:33:02.253Z,59.22
2023-05-11T04:34:08.991Z,59.15
2023-05-11T04:35:12.436Z,59.43
2023-05-11T04:36:17.000Z,59.15
2023-05-11T04:37:19.605Z,58.96
2023-05-11T04:38:23.123Z,59.08
2023-05-11T04:39:25.501Z,59.11
2023-05-11T04:40:28.115Z,58.88
2023-05-11T04:41:30.766Z,58.64
2023-05-11T04:42:34.742Z,58.50
2023-05-11T04:43:38.897Z,58.60
2023-05-11T04:44:43.707Z,58.60
2023-05-11T04:45:50.265Z,58.58
2023-05-11T04:46:57.805Z,58.42
2023-05-11T04:48:00.285Z,58.11
2023-05-11T04:49:02.655Z,58.06
2023-05-11T04:50:06.481Z,57.99
2023-05-11T04:51:11.112Z,58.02
2023-05-11T04:52:17.297Z,57.90
2023-05-11T04:53:23.666Z,57.86
2023-05-11T04:54:26.000Z,57.97
2023-05-11T04:55:28.394Z,57.72
2023-05-11T04:56:31.744Z,57.93
2023-05-11T04:57:34.981Z,57.92
2023-05-11T04:58:38.604Z,57.70
2023-05-11T04:59:41.087Z,57.59
2023-05-11T05:00:43.382Z,57.58
2023-05-11T05:01:45.702Z,57.56
2023-05-11T05:02:50.976Z,57.44
2023-05-11T05:03:53.316Z,56.98
2023-05-11T05:04:55.750Z,56.48
2023-05-11T05:05:59.011Z,56.36
2023-05-11T05:07:01.708Z,56.37
2023-05-11T05:08:04.268Z,56.00
2023-05-11T05:09:07.063Z,55.55
2023-05-11T05:10:12.723Z,55.31
2023-05-11T05:11:15.308Z,54.54
2023-05-11T05:12:17.697Z,54.54
2023-05-11T05:13:20.034Z,54.29
2023-05-11T05:14:22.301Z,53.88
2023-05-11T05:15:24.753Z,53.43
2023-05-11T05:16:27.114Z,53.64
2023-05-11T05:17:29.928Z,52.91
2023-05-11T05:18:32.552Z,53.14
2023-05-11T05:19:35.239Z,52.93
2023-05-11T05:20:37.705Z,52.33
2023-05-11T05:21:40.858Z,52.37
2023-05-11T05:22:43.229Z,51.75
2023-05-11T05:23:45.698Z,51.69
2023-05-11T05:24:48.021Z,51.82
2023-05-11T05:25:50.328Z,51.49
2023-05-11T05:26:52.681Z,51.40
2023-05-11T05:27:55.018Z,51.32
2023-05-11T05:28:57.311Z,51.04
2023-05-11T05:30:00.430Z,50.63
2023-05-11T05:31:02.874Z,50.52
2023-05-11T05:32:05.547Z,50.28
2023-05-11T05:33:08.143Z,50.11
2023-05-11T05:34:12.204Z,49.93
2023-05-11T05:35:15.321Z,49.92
2023-05-11T05:36:19.186Z,50.01
2023-05-11T05:37:22.947Z,49.69
2023-05-11T05:39:27.650Z,49.47
2023-05-11T05:40:29.978Z,49.43
2023-05-11T05:41:32.676Z,49.66
2023-05-11T05:42:35.684Z,49.50
2023-05-11T05:43:38.497Z,49.48
2023-05-11T05:44:42.083Z,49.41
2023-05-11T05:45:44.394Z,49.10
2023-05-11T05:46:46.787Z,49.36
2023-05-11T05:47:49.530Z,49.07
2023-05-11T05:48:52.216Z,49.17
2023-05-11T05:49:55.006Z,49.21
2023-05-11T05:50:57.353Z,49.04
2023-05-11T05:52:00.858Z,49.00
2023-05-11T05:53:03.500Z,49.06
2023-05-11T05:54:06.918Z,49.24
2023-05-11T05:55:09.360Z,49.49
2023-05-11T05:56:11.916Z,49.56
2023-05-11T05:57:15.963Z,49.21
2023-05-11T05:58:20.215Z,49.10
2023-05-11T05:59:24.552Z,49.23
2023-05-11T06:00:32.389Z,48.67
2023-05-11T06:01:46.522Z,48.67
2023-05-11T06:02:50.776Z,48.97
2023-05-11T06:04:01.662Z,48.46
2023-05-11T06:05:04.579Z,48.05
2023-05-11T06:06:07.538Z,47.58
2023-05-11T06:07:09.838Z,47.35
2023-05-11T06:08:12.659Z,47.08
2023-05-11T06:09:15.206Z,47.13
2023-05-11T06:10:17.972Z,46.52
2023-05-11T06:11:22.785Z,46.76
2023-05-11T06:12:27.153Z,46.58
2023-05-11T06:13:31.418Z,46.63
2023-05-11T06:14:35.607Z,46.73
2023-05-11T06:15:39.465Z,46.57
2023-05-11T06:16:49.426Z,46.63
2023-05-11T06:17:51.787Z,46.49
2023-05-11T06:18:54.114Z,46.40
2023-05-11T06:19:56.478Z,45.76
2023-05-11T06:21:02.204Z,46.04
2023-05-11T06:22:07.076Z,45.74
2023-05-11T06:23:12.133Z,45.89
2023-05-11T06:24:16.211Z,45.63
2023-05-11T06:25:20.208Z,45.04
2023-05-11T06:26:25.337Z,45.42
2023-05-11T06:27:28.319Z,45.16
2023-05-11T06:28:32.697Z,45.03
2023-05-11T06:29:39.170Z,45.06
2023-05-11T06:30:41.452Z,44.73
2023-05-11T06:31:44.796Z,44.79
2023-05-11T06:32:47.133Z,45.00
2023-05-11T06:33:51.500Z,45.00
2023-05-11T06:35:00.636Z,44.95
2023-05-11T06:36:07.085Z,44.67
2023-05-11T06:37:11.617Z,44.73
2023-05-11T06:38:13.875Z,44.59
2023-05-11T06:39:16.643Z,44.24
2023-05-11T06:40:19.244Z,44.44
2023-05-11T06:41:21.825Z,44.42
2023-05-11T06:42:24.229Z,44.32
2023-05-11T06:43:26.994Z,43.95
2023-05-11T06:44:29.555Z,43.79
2023-05-11T06:45:33.348Z,43.91
2023-05-11T06:46:35.942Z,43.75
2023-05-11T06:47:39.536Z,43.73
2023-05-11T06:48:42.417Z,43.38
2023-05-11T06:49:45.176Z,43.46
2023-05-11T06:50:47.475Z,43.35
2023-05-11T06:51:50.021Z,43.48
2023-05-11T06:52:52.386Z,43.44
2023-05-11T06:53:54.657Z,43.51
2023-05-11T06:54:57.097Z,43.61
2023-05-11T06:55:59.606Z,43.03
2023-05-11T06:57:05.002Z,43.08
2023-05-11T06:58:07.642Z,42.90
2023-05-11T06:59:09.955Z,43.37
2023-05-11T07:00:12.946Z,43.50
2023-05-11T07:01:16.245Z,43.24
2023-05-11T07:02:18.582Z,43.10
2023-05-11T07:03:20.905Z,43.25
2023-05-11T07:04:23.180Z,42.82
2023-05-11T07:05:25.559Z,42.89
2023-05-11T07:06:28.031Z,42.47
2023-05-11T07:07:30.285Z,42.36
2023-05-11T07:08:34.040Z,42.21
2023-05-11T07:09:36.296Z,42.52
2023-05-11T07:10:38.609Z,42.59
2023-05-11T07:11:41.588Z,41.97
2023-05-11T07:12:43.877Z,41.76
2023-05-11T07:13:46.267Z,41.80
2023-05-11T07:14:48.526Z,42.00
2023-05-11T07:15:50.733Z,41.52
2023-05-11T07:16:53.155Z,41.16
2023-05-11T07:17:55.705Z,41.39
2023-05-11T07:18:58.136Z,40.77
2023-05-11T07:20:00.490Z,40.79
2023-05-11T07:21:02.796Z,40.70
2023-05-11T07:22:06.262Z,40.71
2023-05-11T07:23:08.806Z,40.64
2023-05-11T07:24:11.265Z,40.43
2023-05-11T07:25:13.608Z,40.52
2023-05-11T07:26:15.901Z,40.38
2023-05-11T07:27:18.136Z,40.31
2023-05-11T07:28:20.819Z,40.90
2023-05-11T07:29:23.224Z,40.39
2023-05-11T07:30:25.894Z,40.35
2023-05-11T07:31:30.277Z,40.27
2023-05-11T07:32:32.762Z,39.79
2023-05-11T07:33:38.083Z,39.47
2023-05-11T07:34:41.371Z,39.64
2023-05-11T07:35:43.687Z,39.75
2023-05-11T07:36:46.944Z,39.28
2023-05-11T07:37:49.209Z,39.44
2023-05-11T07:38:51.451Z,38.96
2023-05-11T07:39:54.503Z,38.72
2023-05-11T07:40:57.036Z,39.03
2023-05-11T07:41:59.595Z,38.90
2023-05-11T07:43:02.066Z,38.72
2023-05-11T07:44:04.409Z,38.95
2023-05-11T07:45:07.129Z,39.10
2023-05-11T07:46:09.550Z,39.34
2023-05-11T07:47:12.234Z,38.99
2023-05-11T07:48:14.597Z,38.57
2023-05-11T07:49:22.953Z,38.00
2023-05-11T07:50:34.493Z,37.97
2023-05-11T07:51:37.506Z,38.01
2023-05-11T07:52:39.821Z,37.84
2023-05-11T07:53:42.080Z,37.56
2023-05-11T07:54:44.913Z,38.02
2023-05-11T07:55:47.307Z,37.33
2023-05-11T07:56:50.785Z,37.17
2023-05-11T07:57:54.579Z,37.31
2023-05-11T07:58:58.244Z,37.30
2023-05-11T08:00:01.997Z,37.47
2023-05-11T08:01:14.036Z,37.41
2023-05-11T08:02:16.904Z,37.19
2023-05-11T08:03:19.276Z,36.66
2023-05-11T08:04:21.545Z,36.44
2023-05-11T08:05:23.835Z,36.82
2023-05-11T08:06:26.105Z,36.33
2023-05-11T08:07:29.576Z,36.94
2023-05-11T08:08:31.819Z,36.27
2023-05-11T08:09:34.383Z,36.00
2023-05-11T08:10:37.299Z,36.07
2023-05-11T08:11:39.549Z,35.73
2023-05-11T08:12:41.929Z,35.96
2023-05-11T08:13:44.347Z,36.10
2023-05-11T08:14:46.666Z,35.94
2023-05-11T08:15:49.108Z,36.10
2023-05-11T08:16:51.424Z,35.70
2023-05-11T08:17:54.138Z,35.72
2023-05-11T08:18:56.498Z,34.96
2023-05-11T08:19:59.227Z,35.10
2023-05-11T08:21:01.760Z,34.97
2023-05-11T08:22:04.668Z,34.87
2023-05-11T08:23:06.964Z,34.93
2023-05-11T08:24:09.532Z,34.83
2023-05-11T08:25:11.909Z,34.49
2023-05-11T08:26:14.170Z,34.68
2023-05-11T08:27:16.727Z,34.96
2023-05-11T08:28:20.042Z,35.18
2023-05-11T08:29:22.444Z,35.26
2023-05-11T08:30:24.737Z,35.36
2023-05-11T08:31:27.167Z,35.32
2023-05-11T08:32:29.777Z,35.11
2023-05-11T08:33:37.985Z,34.82
2023-05-11T08:34:41.259Z,33.89
2023-05-11T08:35:45.323Z,33.56
2023-05-11T08:36:48.198Z,33.90
2023-05-11T08:37:50.473Z,33.76
2023-05-11T08:38:57.005Z,33.79
2023-05-11T08:40:01.298Z,33.90
2023-05-11T08:41:03.745Z,33.82
2023-05-11T08:42:07.350Z,33.49
2023-05-11T08:43:10.504Z,33.39
2023-05-11T08:44:14.939Z,33.47
2023-05-11T08:45:18.095Z,33.75
2023-05-11T08:46:22.947Z,33.54
2023-05-11T08:47:25.595Z,33.20
2023-05-11T08:48:28.967Z,33.34
2023-05-11T08:49:31.524Z,33.47
2023-05-11T08:50:34.179Z,33.16
2023-05-11T08:51:36.611Z,33.40
2023-05-11T08:52:40.904Z,33.31
2023-05-11T08:53:43.169Z,33.58
2023-05-11T08:54:46.284Z,32.73
2023-05-11T08:55:51.643Z,33.47
2023-05-11T08:56:55.237Z,33.12
2023-05-11T08:58:00.866Z,33.27
2023-05-11T08:59:05.395Z,33.43
2023-05-11T09:00:08.529Z,33.47
2023-05-11T09:01:12.470Z,32.94
2023-05-11T09:02:19.375Z,33.13
2023-05-11T09:03:21.804Z,32.91
2023-05-11T09:04:25.166Z,32.95
2023-05-11T09:05:28.310Z,32.41
2023-05-11T09:06:31.452Z,32.82
2023-05-11T09:07:37.543Z,33.06
2023-05-11T09:08:40.116Z,32.55
2023-05-11T09:09:42.574Z,32.05
2023-05-11T09:10:45.294Z,32.37
2023-05-11T09:11:47.829Z,32.28
2023-05-11T09:12:50.123Z,31.53
2023-05-11T09:13:52.610Z,32.25
2023-05-11T09:14:55.007Z,32.54
2023-05-11T09:16:04.153Z,32.03
2023-05-11T09:17:06.791Z,32.02
2023-05-11T09:18:09.128Z,31.96
2023-05-11T09:19:18.388Z,32.15
2023-05-11T09:20:29.352Z,32.35
2023-05-11T09:21:32.417Z,32.07
2023-05-11T09:22:41.274Z,32.08
2023-05-11T09:23:43.963Z,31.56
2023-05-11T09:24:47.739Z,31.19
2023-05-11T09:25:51.206Z,31.64
2023-05-11T09:27:09.714Z,31.68
2023-05-11T09:28:15.865Z,31.28
2023-05-11T09:29:19.874Z,31.67
2023-05-11T09:30:23.978Z,31.41
2023-05-11T09:31:39.105Z,31.67
2023-05-11T09:32:57.945Z,31.93
2023-05-11T09:34:21.373Z,31.97
2023-05-11T09:35:30.489Z,31.72
2023-05-11T09:36:32.773Z,31.68
2023-05-11T09:37:35.161Z,31.49
2023-05-11T09:38:38.834Z,31.14
2023-05-11T09:39:57.445Z,31.47
2023-05-11T09:41:05.056Z,31.54
2023-05-11T09:42:14.379Z,31.57
2023-05-11T09:43:27.278Z,31.24
2023-05-11T09:44:32.038Z,31.39
2023-05-11T09:45:44.643Z,31.37
2023-05-11T09:46:47.876Z,31.20
2023-05-11T09:47:50.277Z,31.03
2023-05-11T09:49:00.913Z,31.07
2023-05-11T09:50:16.700Z,31.04
2023-05-11T09:51:31.282Z,31.27
2023-05-11T09:52:33.644Z,30.75
2023-05-11T09:53:45.606Z,30.99
2023-05-11T09:54:50.619Z,30.71
2023-05-11T09:55:54.763Z,30.84
2023-05-11T09:57:00.437Z,30.84
2023-05-11T09:58:04.617Z,30.39
2023-05-11T09:59:06.973Z,30.85
2023-05-11T10:00:15.182Z,30.86
2023-05-11T10:01:29.012Z,31.03
2023-05-11T10:02:32.354Z,30.57
2023-05-11T10:03:46.168Z,31.05
2023-05-11T10:04:49.763Z,30.99
2023-05-11T10:06:00.064Z,30.91
2023-05-11T10:07:02.478Z,31.00
2023-05-11T10:08:06.321Z,30.86
2023-05-11T10:09:09.603Z,30.51
2023-05-11T10:10:12.745Z,29.97
2023-05-11T10:11:15.277Z,29.93
2023-05-11T10:12:21.455Z,30.18
2023-05-11T10:13:27.336Z,30.44
2023-05-11T10:14:32.300Z,30.46
2023-05-11T10:15:37.131Z,30.14
2023-05-11T10:16:42.580Z,30.03
2023-05-11T10:17:45.231Z,29.62
2023-05-11T10:18:48.669Z,29.80
2023-05-11T10:19:52.028Z,29.71
2023-05-11T10:20:55.960Z,29.21
2023-05-11T10:22:00.600Z,29.71
2023-05-11T10:23:03.583Z,29.04
2023-05-11T10:24:06.963Z,28.29
2023-05-11T10:25:10.213Z,28.34
2023-05-11T10:26:13.528Z,28.41
2023-05-11T10:27:16.008Z,28.45
2023-05-11T10:28:21.351Z,28.91
2023-05-11T10:29:24.217Z,29.00
2023-05-11T10:30:27.207Z,28.41
2023-05-11T10:31:30.108Z,28.58
2023-05-11T10:32:37.708Z,28.58
2023-05-11T10:33:41.945Z,28.55
2023-05-11T10:34:46.590Z,28.72
2023-05-11T10:35:50.317Z,28.65
2023-05-11T10:36:53.840Z,29.08
2023-05-11T10:37:56.248Z,28.97
2023-05-11T10:38:59.074Z,28.54
2023-05-11T10:40:01.732Z,28.57
2023-05-11T10:41:22.444Z,28.44
2023-05-11T10:42:37.820Z,28.80
2023-05-11T10:44:03.508Z,28.60
2023-05-11T10:45:26.679Z,28.89
2023-05-11T10:46:56.865Z,28.06
2023-05-11T10:48:46.010Z,28.49
2023-05-11T10:50:13.573Z,29.34
2023-05-11T10:52:00.955Z,28.46
2023-05-11T10:53:22.578Z,28.34
2023-05-11T10:55:07.801Z,28.84
2023-05-11T10:56:31.996Z,29.32
2023-05-11T10:58:07.929Z,28.86
2023-05-11T10:59:29.770Z,29.07
2023-05-11T11:01:08.614Z,28.38
2023-05-11T11:02:11.152Z,28.59
2023-05-11T11:03:14.874Z,28.25
2023-05-11T11:04:17.577Z,28.78
2023-05-11T11:05:38.314Z,28.38
2023-05-11T11:06:44.377Z,28.43
2023-05-11T11:08:00.459Z,28.88
2023-05-11T11:09:06.247Z,28.56
2023-05-11T11:10:09.334Z,28.94
2023-05-11T11:11:32.219Z,29.02
2023-05-11T11:12:37.703Z,28.80
2023-05-11T11:14:02.608Z,28.75
2023-05-11T11:15:07.175Z,28.34
2023-05-11T11:16:09.726Z,28.36
2023-05-11T11:17:21.060Z,28.46
2023-05-11T11:18:31.395Z,28.29
2023-05-11T11:19:33.762Z,28.73
2023-05-11T11:20:47.372Z,29.31
2023-05-11T11:21:49.656Z,29.10
2023-05-11T11:22:52.709Z,29.19
2023-05-11T11:23:55.127Z,28.53
2023-05-11T11:24:57.459Z,28.68
2023-05-11T11:25:59.883Z,28.42
2023-05-11T11:27:02.249Z,28.93
2023-05-11T11:28:04.696Z,28.99
2023-05-11T11:29:11.522Z,28.98
2023-05-11T11:30:29.099Z,29.40
2023-05-11T11:31:33.151Z,29.44
2023-05-11T11:32:35.972Z,29.21
2023-05-11T11:33:38.245Z,29.23
2023-05-11T11:34:40.513Z,28.77
2023-05-11T11:35:43.035Z,29.30
2023-05-11T11:37:04.572Z,29.30
2023-05-11T11:38:20.638Z,29.25
2023-05-11T11:39:25.585Z,29.29
2023-05-11T11:40:49.605Z,29.52
2023-05-11T11:42:07.464Z,29.21
2023-05-11T11:43:17.818Z,28.95
2023-05-11T11:44:23.201Z,29.36
2023-05-11T11:45:31.236Z,29.53
2023-05-11T11:46:33.574Z,29.68
2023-05-11T11:47:35.922Z,29.71
2023-05-11T11:48:40.918Z,29.55
2023-05-11T11:50:13.828Z,29.84
2023-05-11T11:51:16.376Z,29.77
2023-05-11T11:52:28.069Z,29.82
2023-05-11T11:53:36.169Z,29.82
2023-05-11T11:54:45.168Z,29.68
2023-05-11T11:55:49.138Z,29.76
2023-05-11T11:56:51.736Z,29.79
2023-05-11T11:57:54.049Z,30.09
2023-05-11T11:58:56.272Z,30.13
2023-05-11T12:00:07.035Z,30.35
2023-05-11T12:01:20.087Z,29.66
2023-05-11T12:02:23.606Z,29.68
2023-05-11T12:03:26.404Z,29.27
2023-05-11T12:04:39.402Z,29.41
2023-05-11T12:05:45.186Z,29.89
2023-05-11T12:06:56.280Z,30.36
2023-05-11T12:08:04.491Z,30.37
2023-05-11T12:09:08.431Z,30.17
2023-05-11T12:10:13.171Z,29.80
2023-05-11T12:11:17.856Z,29.30
2023-05-11T12:12:21.185Z,29.23
2023-05-11T12:13:25.317Z,29.15
2023-05-11T12:14:28.626Z,29.06
2023-05-11T12:15:34.470Z,29.03
2023-05-11T12:16:36.741Z,29.52
2023-05-11T12:17:39.279Z,29.09
2023-05-11T12:18:42.944Z,28.66
2023-05-11T12:19:45.833Z,28.99
2023-05-11T12:20:50.928Z,29.10
2023-05-11T12:21:53.282Z,29.17
2023-05-11T12:22:56.710Z,29.31
2023-05-11T12:24:03.916Z,29.39
2023-05-11T12:25:08.476Z,29.27
2023-05-11T12:26:10.780Z,28.91
2023-05-11T12:27:13.050Z,28.91
2023-05-11T12:28:19.755Z,29.40
2023-05-11T12:29:22.119Z,29.56
2023-05-11T12:30:26.602Z,29.83
2023-05-11T12:31:34.730Z,30.03
2023-05-11T12:32:37.172Z,29.63
2023-05-11T12:33:50.194Z,29.93
2023-05-11T12:35:04.450Z,29.80
2023-05-11T12:36:07.264Z,29.60
2023-05-11T12:37:09.655Z,29.86
2023-05-11T12:38:12.293Z,30.09
2023-05-11T12:39:18.251Z,30.47
2023-05-11T12:40:20.679Z,30.23
2023-05-11T12:41:23.966Z,30.16
2023-05-11T12:42:26.617Z,30.21
2023-05-11T12:43:28.933Z,30.30
2023-05-11T12:44:32.847Z,30.28
2023-05-11T12:45:35.133Z,30.30
2023-05-11T12:46:37.860Z,30.29
2023-05-11T12:47:40.602Z,30.91
2023-05-11T12:48:43.315Z,30.46
2023-05-11T12:49:45.669Z,30.30
2023-05-11T12:50:47.983Z,30.33
2023-05-11T12:51:57.447Z,30.40
2023-05-11T12:53:19.627Z,30.39
2023-05-11T12:54:33.963Z,30.33
2023-05-11T12:55:36.230Z,30.51
2023-05-11T12:56:48.580Z,30.61
2023-05-11T12:57:54.735Z,30.48
2023-05-11T12:58:57.033Z,30.34
2023-05-11T13:00:11.933Z,30.12
2023-05-11T13:01:14.262Z,29.86
2023-05-11T13:02:19.409Z,30.52
2023-05-11T13:03:26.803Z,30.02
2023-05-11T13:04:30.746Z,30.22
2023-05-11T13:05:33.047Z,30.38
2023-05-11T13:06:35.863Z,30.41
2023-05-11T13:07:38.198Z,30.33
2023-05-11T13:08:45.655Z,30.24
2023-05-11T13:09:56.433Z,30.52
2023-05-11T13:11:27.017Z,29.88
2023-05-11T13:12:32.265Z,29.69
2023-05-11T13:13:34.864Z,30.01
2023-05-11T13:14:37.157Z,30.05
2023-05-11T13:15:52.561Z,30.20
2023-05-11T13:16:54.977Z,30.40
2023-05-11T13:18:03.694Z,30.53
2023-05-11T13:19:08.659Z,30.34
2023-05-11T13:20:26.925Z,30.72
2023-05-11T13:21:30.155Z,30.87
2023-05-11T13:22:32.513Z,30.79
2023-05-11T13:23:34.833Z,31.00
2023-05-11T13:24:37.087Z,31.12
2023-05-11T13:25:45.501Z,31.39
2023-05-11T13:26:47.837Z,31.36
2023-05-11T13:27:50.129Z,31.73
2023-05-11T13:29:08.564Z,31.59
2023-05-11T13:30:14.249Z,31.45
2023-05-11T13:31:17.252Z,31.45
2023-05-11T13:32:19.610Z,31.54
2023-05-11T13:33:22.210Z,31.41
2023-05-11T13:34:25.633Z,30.81
2023-05-11T13:35:27.918Z,30.97
2023-05-11T13:36:30.170Z,31.17
2023-05-11T13:37:32.598Z,31.40
2023-05-11T13:38:34.903Z,31.33
2023-05-11T13:39:37.435Z,31.20
2023-05-11T13:40:40.228Z,31.29
2023-05-11T13:41:42.742Z,31.08
2023-05-11T13:42:45.007Z,30.95
2023-05-11T13:43:48.889Z,31.05
2023-05-11T13:44:51.192Z,31.19
2023-05-11T13:45:53.467Z,31.18
2023-05-11T13:46:55.917Z,30.51
2023-05-11T13:47:58.265Z,30.27
2023-05-11T13:49:00.988Z,30.54
2023-05-11T13:50:03.987Z,30.06
2023-05-11T13:51:06.255Z,30.05
2023-05-11T13:52:09.012Z,29.86
2023-05-11T13:53:13.543Z,30.37
2023-05-11T13:54:16.115Z,30.02
2023-05-11T13:55:18.926Z,30.08
2023-05-11T13:56:22.272Z,29.81
2023-05-11T13:57:24.717Z,30.31
2023-05-11T13:58:27.192Z,30.30
2023-05-11T13:59:29.425Z,30.34
2023-05-11T14:00:32.049Z,30.24
2023-05-11T14:01:34.388Z,30.30
2023-05-11T14:02:36.918Z,30.33
2023-05-11T14:03:40.098Z,30.45